sensor_id;sensor_type;location;lat;lon;timestamp;pressure;altitude;pressure_sealevel;temperature;humidity
6208;BME280;3137;51.550;7.060;2023-02-03T00:01:45;102029.78;;;8.03;85.22
6208;BME280;3137;51.550;7.060;2023-02-03T00:04:11;102027.78;;;8.08;85.63
6208;BME280;3137;51.550;7.060;2023-02-03T00:06:38;102038.47;;;8.08;85.18
6208;BME280;3137;51.550;7.060;2023-02-03T00:09:05;102039.41;;;8.07;85.79
6208;BME280;3137;51.550;7.060;2023-02-03T00:11:31;102026.06;;;8.07;85.49
6208;BME280;3137;51.550;7.060;2023-02-03T00:13:59;102035.78;;;8.08;85.78
6208;BME280;3137;51.550;7.060;2023-02-03T00:16:25;102037.66;;;8.06;85.29
6208;BME280;3137;51.550;7.060;2023-02-03T00:18:52;102029.81;;;8.01;85.48
6208;BME280;3137;51.550;7.060;2023-02-03T00:21:18;102025.31;;;8.03;85.64
6208;BME280;3137;51.550;7.060;2023-02-03T00:23:45;102021.16;;;7.96;85.75
6208;BME280;3137;51.550;7.060;2023-02-03T00:26:14;102013.91;;;8.00;85.98
6208;BME280;3137;51.550;7.060;2023-02-03T00:28:42;102012.97;;;8.01;85.23
6208;BME280;3137;51.550;7.060;2023-02-03T00:31:20;102011.25;;;8.00;86.09
6208;BME280;3137;51.550;7.060;2023-02-03T00:33:53;102022.78;;;8.00;85.86
6208;BME280;3137;51.550;7.060;2023-02-03T00:36:20;102015.63;;;8.01;85.35
6208;BME280;3137;51.550;7.060;2023-02-03T00:38:46;102009.53;;;7.97;85.45
6208;BME280;3137;51.550;7.060;2023-02-03T00:41:14;102026.25;;;8.02;85.31
6208;BME280;3137;51.550;7.060;2023-02-03T00:43:41;102025.31;;;8.03;85.76
6208;BME280;3137;51.550;7.060;2023-02-03T00:46:08;102022.78;;;8.00;85.72
6208;BME280;3137;51.550;7.060;2023-02-03T00:48:34;102025.53;;;7.97;85.61
6208;BME280;3137;51.550;7.060;2023-02-03T00:51:01;102020.16;;;7.99;85.59
6208;BME280;3137;51.550;7.060;2023-02-03T00:53:27;102036.09;;;8.00;85.62
6208;BME280;3137;51.550;7.060;2023-02-03T00:55:54;102033.34;;;8.02;85.22
6208;BME280;3137;51.550;7.060;2023-02-03T00:58:20;102046.66;;;8.03;85.77
6208;BME280;3137;51.550;7.060;2023-02-03T01:00:47;102052.84;;;8.04;85.63
6208;BME280;3137;51.550;7.060;2023-02-03T01:03:13;102054.66;;;8.03;85.65
6208;BME280;3137;51.550;7.060;2023-02-03T01:05:41;102058.31;;;8.01;85.88
6208;BME280;3137;51.550;7.060;2023-02-03T01:08:07;102060.94;;;8.02;85.79
6208;BME280;3137;51.550;7.060;2023-02-03T01:10:36;102078.53;;;8.06;85.94
6208;BME280;3137;51.550;7.060;2023-02-03T01:13:03;102084.00;;;8.03;85.75
6208;BME280;3137;51.550;7.060;2023-02-03T01:15:29;102090.97;;;8.07;85.19
6208;BME280;3137;51.550;7.060;2023-02-03T01:17:56;102092.94;;;8.02;85.05
6208;BME280;3137;51.550;7.060;2023-02-03T01:20:22;102087.34;;;8.08;85.60
6208;BME280;3137;51.550;7.060;2023-02-03T01:22:49;102086.44;;;8.09;85.58
6208;BME280;3137;51.550;7.060;2023-02-03T01:25:16;102080.28;;;8.07;85.34
6208;BME280;3137;51.550;7.060;2023-02-03T01:27:42;102066.88;;;8.09;85.50
6208;BME280;3137;51.550;7.060;2023-02-03T01:30:09;102069.63;;;8.07;85.67
6208;BME280;3137;51.550;7.060;2023-02-03T01:32:36;102063.28;;;8.10;84.89
6208;BME280;3137;51.550;7.060;2023-02-03T01:35:03;102073.88;;;8.12;84.92
6208;BME280;3137;51.550;7.060;2023-02-03T01:37:29;102065.00;;;8.11;84.65
6208;BME280;3137;51.550;7.060;2023-02-03T01:39:56;102079.81;;;8.20;84.12
6208;BME280;3137;51.550;7.060;2023-02-03T01:42:22;102083.31;;;8.20;84.71
6208;BME280;3137;51.550;7.060;2023-02-03T01:44:50;102070.94;;;8.19;84.33
6208;BME280;3137;51.550;7.060;2023-02-03T01:52:26;102076.31;;;8.18;84.64
6208;BME280;3137;51.550;7.060;2023-02-03T01:54:54;102073.59;;;8.19;84.21
6208;BME280;3137;51.550;7.060;2023-02-03T01:57:26;102069.94;;;8.22;84.10
6208;BME280;3137;51.550;7.060;2023-02-03T01:59:56;102062.94;;;8.19;83.74
6208;BME280;3137;51.550;7.060;2023-02-03T02:02:26;102072.53;;;8.23;83.85
6208;BME280;3137;51.550;7.060;2023-02-03T02:05:00;102057.44;;;8.22;83.20
6208;BME280;3137;51.550;7.060;2023-02-03T02:07:28;102048.63;;;8.20;84.14
6208;BME280;3137;51.550;7.060;2023-02-03T02:09:56;102050.31;;;8.23;83.69
6208;BME280;3137;51.550;7.060;2023-02-03T02:12:22;102053.84;;;8.23;83.78
6208;BME280;3137;51.550;7.060;2023-02-03T02:14:49;102036.06;;;8.24;83.63
6208;BME280;3137;51.550;7.060;2023-02-03T02:22:47;102022.09;;;8.17;84.54
6208;BME280;3137;51.550;7.060;2023-02-03T02:31:05;102020.94;;;8.23;83.78
6208;BME280;3137;51.550;7.060;2023-02-03T02:33:57;102013.91;;;8.22;83.67
6208;BME280;3137;51.550;7.060;2023-02-03T02:36:39;102003.22;;;8.22;83.69
6208;BME280;3137;51.550;7.060;2023-02-03T02:39:20;101990.78;;;8.21;83.48
6208;BME280;3137;51.550;7.060;2023-02-03T02:41:52;101991.53;;;8.24;83.49
6208;BME280;3137;51.550;7.060;2023-02-03T02:44:29;101999.47;;;8.26;83.17
6208;BME280;3137;51.550;7.060;2023-02-03T02:47:20;101998.59;;;8.25;83.30
6208;BME280;3137;51.550;7.060;2023-02-03T02:49:59;101980.06;;;8.22;83.57
6208;BME280;3137;51.550;7.060;2023-02-03T02:52:30;101984.44;;;8.23;82.81
6208;BME280;3137;51.550;7.060;2023-02-03T02:55:04;101972.09;;;8.21;83.75
6208;BME280;3137;51.550;7.060;2023-02-03T02:57:34;101969.25;;;8.25;83.26
6208;BME280;3137;51.550;7.060;2023-02-03T03:00:03;101986.13;;;8.26;82.91
6208;BME280;3137;51.550;7.060;2023-02-03T03:02:34;101997.78;;;8.23;83.31
6208;BME280;3137;51.550;7.060;2023-02-03T03:05:04;102010.41;;;8.20;83.62
6208;BME280;3137;51.550;7.060;2023-02-03T03:07:47;102016.75;;;8.17;83.79
6208;BME280;3137;51.550;7.060;2023-02-03T03:10:17;102012.28;;;8.18;83.33
6208;BME280;3137;51.550;7.060;2023-02-03T03:12:53;102021.28;;;8.15;83.61
6208;BME280;3137;51.550;7.060;2023-02-03T03:15:26;102020.41;;;8.15;83.57
6208;BME280;3137;51.550;7.060;2023-02-03T03:18:12;102006.25;;;8.13;83.77
6208;BME280;3137;51.550;7.060;2023-02-03T03:20:40;102010.59;;;8.15;83.11
6208;BME280;3137;51.550;7.060;2023-02-03T03:23:18;102016.81;;;8.16;82.98
6208;BME280;3137;51.550;7.060;2023-02-03T03:25:48;102009.59;;;8.18;83.13
6208;BME280;3137;51.550;7.060;2023-02-03T03:28:24;102010.56;;;8.17;82.84
6208;BME280;3137;51.550;7.060;2023-02-03T03:30:53;102015.88;;;8.17;82.73
6208;BME280;3137;51.550;7.060;2023-02-03T03:33:20;102005.31;;;8.14;83.21
6208;BME280;3137;51.550;7.060;2023-02-03T03:36:04;101989.31;;;8.14;82.71
6208;BME280;3137;51.550;7.060;2023-02-03T03:43:42;101998.94;;;8.18;82.86
6208;BME280;3137;51.550;7.060;2023-02-03T03:46:13;102003.31;;;8.19;82.36
6208;BME280;3137;51.550;7.060;2023-02-03T03:48:49;101998.78;;;8.21;82.17
6208;BME280;3137;51.550;7.060;2023-02-03T03:51:21;102004.09;;;8.22;81.96
6208;BME280;3137;51.550;7.060;2023-02-03T03:53:50;102014.00;;;8.19;82.47
6208;BME280;3137;51.550;7.060;2023-02-03T03:56:43;102004.22;;;8.19;82.46
6208;BME280;3137;51.550;7.060;2023-02-03T03:59:12;102000.66;;;8.19;82.04
6208;BME280;3137;51.550;7.060;2023-02-03T04:01:41;102013.91;;;8.22;82.04
6208;BME280;3137;51.550;7.060;2023-02-03T04:04:09;102008.66;;;8.19;82.52
6208;BME280;3137;51.550;7.060;2023-02-03T04:06:37;102008.59;;;8.20;81.70
6208;BME280;3137;51.550;7.060;2023-02-03T04:09:04;102003.41;;;8.17;81.76
6208;BME280;3137;51.550;7.060;2023-02-03T04:11:31;102008.13;;;8.10;82.73
6208;BME280;3137;51.550;7.060;2023-02-03T04:14:15;102006.22;;;8.14;82.39
6208;BME280;3137;51.550;7.060;2023-02-03T04:16:42;101998.97;;;8.16;81.92
6208;BME280;3137;51.550;7.060;2023-02-03T04:19:08;101990.94;;;8.18;82.49
6208;BME280;3137;51.550;7.060;2023-02-03T04:21:35;101999.06;;;8.15;82.41
6208;BME280;3137;51.550;7.060;2023-02-03T04:24:02;102005.31;;;8.14;82.28
6208;BME280;3137;51.550;7.060;2023-02-03T04:26:28;102004.22;;;8.19;82.20
6208;BME280;3137;51.550;7.060;2023-02-03T04:28:55;101995.31;;;8.19;82.08
6208;BME280;3137;51.550;7.060;2023-02-03T04:31:21;101997.13;;;8.18;82.07
6208;BME280;3137;51.550;7.060;2023-02-03T04:33:47;101997.22;;;8.17;81.44
6208;BME280;3137;51.550;7.060;2023-02-03T04:36:14;101998.13;;;8.16;81.63
6208;BME280;3137;51.550;7.060;2023-02-03T04:38:40;102010.66;;;8.14;81.79
6208;BME280;3137;51.550;7.060;2023-02-03T04:41:06;101994.78;;;8.10;82.51
6208;BME280;3137;51.550;7.060;2023-02-03T04:43:33;101997.22;;;8.17;81.88
6208;BME280;3137;51.550;7.060;2023-02-03T04:45:59;101992.88;;;8.14;81.82
6208;BME280;3137;51.550;7.060;2023-02-03T04:48:26;101991.88;;;8.17;82.23
6208;BME280;3137;51.550;7.060;2023-02-03T04:50:53;101979.44;;;8.16;82.07
6208;BME280;3137;51.550;7.060;2023-02-03T04:53:19;101975.97;;;8.14;81.68
6208;BME280;3137;51.550;7.060;2023-02-03T04:55:46;101962.44;;;8.18;81.85
6208;BME280;3137;51.550;7.060;2023-02-03T04:58:13;101960.56;;;8.20;81.67
6208;BME280;3137;51.550;7.060;2023-02-03T05:00:40;101953.44;;;8.21;81.19
6208;BME280;3137;51.550;7.060;2023-02-03T05:03:06;101954.31;;;8.21;81.38
6208;BME280;3137;51.550;7.060;2023-02-03T05:05:33;101960.44;;;8.23;81.45
6208;BME280;3137;51.550;7.060;2023-02-03T05:07:59;101965.84;;;8.22;81.36
6208;BME280;3137;51.550;7.060;2023-02-03T05:10:25;101967.72;;;8.20;81.40
6208;BME280;3137;51.550;7.060;2023-02-03T05:12:52;101961.44;;;8.21;81.75
6208;BME280;3137;51.550;7.060;2023-02-03T05:15:19;101961.44;;;8.21;81.96
6208;BME280;3137;51.550;7.060;2023-02-03T05:17:45;101960.63;;;8.19;81.94
6208;BME280;3137;51.550;7.060;2023-02-03T05:20:11;101956.28;;;8.16;81.51
6208;BME280;3137;51.550;7.060;2023-02-03T05:22:38;101960.84;;;8.14;81.80
6208;BME280;3137;51.550;7.060;2023-02-03T05:25:05;101972.19;;;8.19;81.28
6208;BME280;3137;51.550;7.060;2023-02-03T05:27:31;101963.19;;;8.22;81.50
6208;BME280;3137;51.550;7.060;2023-02-03T05:29:57;101955.22;;;8.20;81.52
6208;BME280;3137;51.550;7.060;2023-02-03T05:32:24;101960.63;;;8.19;81.79
6208;BME280;3137;51.550;7.060;2023-02-03T05:34:50;101945.69;;;8.15;81.89
6208;BME280;3137;51.550;7.060;2023-02-03T05:37:17;101949.84;;;8.22;81.31
6208;BME280;3137;51.550;7.060;2023-02-03T05:39:43;101937.31;;;8.24;80.72
6208;BME280;3137;51.550;7.060;2023-02-03T05:42:09;101957.84;;;8.22;80.86
6208;BME280;3137;51.550;7.060;2023-02-03T05:44:36;101962.31;;;8.21;81.06
6208;BME280;3137;51.550;7.060;2023-02-03T05:47:02;101966.72;;;8.22;81.01
6208;BME280;3137;51.550;7.060;2023-02-03T05:49:28;101970.19;;;8.24;81.01
6208;BME280;3137;51.550;7.060;2023-02-03T05:51:55;101951.50;;;8.24;80.65
6208;BME280;3137;51.550;7.060;2023-02-03T05:54:22;101949.72;;;8.25;80.52
6208;BME280;3137;51.550;7.060;2023-02-03T05:56:49;101956.75;;;8.26;80.62
6208;BME280;3137;51.550;7.060;2023-02-03T05:59:15;101945.31;;;8.24;80.55
6208;BME280;3137;51.550;7.060;2023-02-03T06:01:42;101939.84;;;8.27;80.96
6208;BME280;3137;51.550;7.060;2023-02-03T06:04:08;101957.72;;;8.25;80.84
6208;BME280;3137;51.550;7.060;2023-02-03T06:06:35;101952.38;;;8.25;80.68
6208;BME280;3137;51.550;7.060;2023-02-03T06:09:06;101967.38;;;8.27;80.60
6208;BME280;3137;51.550;7.060;2023-02-03T06:11:34;101976.41;;;8.25;80.84
6208;BME280;3137;51.550;7.060;2023-02-03T06:14:02;101976.25;;;8.28;80.39
6208;BME280;3137;51.550;7.060;2023-02-03T06:16:29;101973.66;;;8.26;81.42
6208;BME280;3137;51.550;7.060;2023-02-03T06:18:55;101964.47;;;8.34;79.91
6208;BME280;3137;51.550;7.060;2023-02-03T06:21:26;101955.66;;;8.31;80.42
6208;BME280;3137;51.550;7.060;2023-02-03T06:23:53;101958.53;;;8.27;80.95
6208;BME280;3137;51.550;7.060;2023-02-03T06:26:21;101962.09;;;8.26;81.11
6208;BME280;3137;51.550;7.060;2023-02-03T06:28:47;101953.78;;;8.34;80.51
6208;BME280;3137;51.550;7.060;2023-02-03T06:31:13;101975.34;;;8.29;80.90
6208;BME280;3137;51.550;7.060;2023-02-03T06:33:40;101987.56;;;8.35;80.59
6208;BME280;3137;51.550;7.060;2023-02-03T06:36:07;101967.25;;;8.30;80.55
6208;BME280;3137;51.550;7.060;2023-02-03T06:38:33;101969.00;;;8.31;80.75
6208;BME280;3137;51.550;7.060;2023-02-03T06:40:59;101975.34;;;8.29;81.16
6208;BME280;3137;51.550;7.060;2023-02-03T06:43:26;101963.81;;;8.28;80.74
6208;BME280;3137;51.550;7.060;2023-02-03T06:45:52;101970.13;;;8.26;81.61
6208;BME280;3137;51.550;7.060;2023-02-03T06:48:19;101975.53;;;8.24;81.36
6208;BME280;3137;51.550;7.060;2023-02-03T06:50:45;101971.00;;;8.26;81.37
6208;BME280;3137;51.550;7.060;2023-02-03T06:53:14;101968.38;;;8.25;81.52
6208;BME280;3137;51.550;7.060;2023-02-03T06:55:40;101976.53;;;8.22;82.20
6208;BME280;3137;51.550;7.060;2023-02-03T06:58:07;101972.91;;;8.23;82.34
6208;BME280;3137;51.550;7.060;2023-02-03T07:00:33;101976.78;;;8.16;82.76
6208;BME280;3137;51.550;7.060;2023-02-03T07:03:00;101972.25;;;8.18;82.58
6208;BME280;3137;51.550;7.060;2023-02-03T07:05:27;101980.25;;;8.18;82.18
6208;BME280;3137;51.550;7.060;2023-02-03T07:07:54;101978.59;;;8.15;82.57
6208;BME280;3137;51.550;7.060;2023-02-03T07:10:20;101982.97;;;8.16;82.21
6208;BME280;3137;51.550;7.060;2023-02-03T07:12:46;101985.44;;;8.21;82.25
6208;BME280;3137;51.550;7.060;2023-02-03T07:15:13;101982.97;;;8.16;82.12
6208;BME280;3137;51.550;7.060;2023-02-03T07:17:39;101982.78;;;8.21;82.04
6208;BME280;3137;51.550;7.060;2023-02-03T07:20:06;101994.13;;;8.26;81.71
6208;BME280;3137;51.550;7.060;2023-02-03T07:22:33;101984.16;;;8.31;80.91
6208;BME280;3137;51.550;7.060;2023-02-03T07:24:59;101978.81;;;8.31;80.85
6208;BME280;3137;51.550;7.060;2023-02-03T07:27:25;101983.16;;;8.34;80.51
6208;BME280;3137;51.550;7.060;2023-02-03T07:29:53;101982.22;;;8.35;81.00
6208;BME280;3137;51.550;7.060;2023-02-03T07:32:19;101972.59;;;8.30;81.00
6208;BME280;3137;51.550;7.060;2023-02-03T07:34:45;101975.19;;;8.32;80.71
6208;BME280;3137;51.550;7.060;2023-02-03T07:37:12;101984.94;;;8.33;80.40
6208;BME280;3137;51.550;7.060;2023-02-03T07:39:38;101988.41;;;8.35;80.62
6208;BME280;3137;51.550;7.060;2023-02-03T07:42:04;101986.44;;;8.40;80.76
6208;BME280;3137;51.550;7.060;2023-02-03T07:44:35;101986.50;;;8.39;80.40
6208;BME280;3137;51.550;7.060;2023-02-03T07:47:01;101980.28;;;8.38;80.39
6208;BME280;3137;51.550;7.060;2023-02-03T07:49:28;101990.03;;;8.39;80.72
6208;BME280;3137;51.550;7.060;2023-02-03T07:51:54;101992.88;;;8.35;80.74
6208;BME280;3137;51.550;7.060;2023-02-03T07:54:21;101990.28;;;8.33;80.39
6208;BME280;3137;51.550;7.060;2023-02-03T07:56:48;101996.41;;;8.35;80.77
6208;BME280;3137;51.550;7.060;2023-02-03T07:59:15;101987.50;;;8.36;80.74
6208;BME280;3137;51.550;7.060;2023-02-03T08:01:42;101981.41;;;8.32;80.73
6208;BME280;3137;51.550;7.060;2023-02-03T08:04:08;101984.88;;;8.35;81.17
6208;BME280;3137;51.550;7.060;2023-02-03T08:06:37;101986.63;;;8.36;80.60
6208;BME280;3137;51.550;7.060;2023-02-03T08:09:03;101993.66;;;8.38;80.30
6208;BME280;3137;51.550;7.060;2023-02-03T08:11:30;102003.50;;;8.36;80.66
6208;BME280;3137;51.550;7.060;2023-02-03T08:13:57;102007.84;;;8.39;80.60
6208;BME280;3137;51.550;7.060;2023-02-03T08:16:24;102001.59;;;8.40;80.99
6208;BME280;3137;51.550;7.060;2023-02-03T08:18:50;102004.31;;;8.38;80.83
6208;BME280;3137;51.550;7.060;2023-02-03T08:21:16;102005.22;;;8.37;80.96
6208;BME280;3137;51.550;7.060;2023-02-03T08:23:43;102010.53;;;8.39;80.67
6208;BME280;3137;51.550;7.060;2023-02-03T08:26:09;102011.38;;;8.41;80.45
6208;BME280;3137;51.550;7.060;2023-02-03T08:28:35;102009.59;;;8.40;81.17
6208;BME280;3137;51.550;7.060;2023-02-03T08:31:08;102008.72;;;8.39;80.62
6208;BME280;3137;51.550;7.060;2023-02-03T08:33:35;102004.06;;;8.44;80.49
6208;BME280;3137;51.550;7.060;2023-02-03T08:36:02;101994.34;;;8.43;80.64
6208;BME280;3137;51.550;7.060;2023-02-03T08:38:31;101994.41;;;8.42;81.31
6208;BME280;3137;51.550;7.060;2023-02-03T08:40:57;101999.69;;;8.43;80.36
6208;BME280;3137;51.550;7.060;2023-02-03T08:43:24;102000.41;;;8.47;80.30
6208;BME280;3137;51.550;7.060;2023-02-03T08:45:50;102005.69;;;8.48;80.53
6208;BME280;3137;51.550;7.060;2023-02-03T08:48:17;102010.09;;;8.49;80.22
6208;BME280;3137;51.550;7.060;2023-02-03T08:50:43;102003.06;;;8.47;80.35
6208;BME280;3137;51.550;7.060;2023-02-03T08:53:17;102010.91;;;8.51;80.68
6208;BME280;3137;51.550;7.060;2023-02-03T08:55:43;102007.22;;;8.54;80.82
6208;BME280;3137;51.550;7.060;2023-02-03T08:58:10;102010.75;;;8.55;80.64
6208;BME280;3137;51.550;7.060;2023-02-03T09:00:36;102001.81;;;8.56;80.31
6208;BME280;3137;51.550;7.060;2023-02-03T09:03:03;102007.03;;;8.59;80.63
6208;BME280;3137;51.550;7.060;2023-02-03T09:05:30;102006.88;;;8.62;80.28
6208;BME280;3137;51.550;7.060;2023-02-03T09:07:57;102007.63;;;8.65;80.31
6208;BME280;3137;51.550;7.060;2023-02-03T09:10:23;102003.09;;;8.67;79.87
6208;BME280;3137;51.550;7.060;2023-02-03T09:12:50;102005.59;;;8.72;80.19
6208;BME280;3137;51.550;7.060;2023-02-03T09:15:16;102013.69;;;8.69;80.66
6208;BME280;3137;51.550;7.060;2023-02-03T09:17:43;102019.75;;;8.74;80.20
6208;BME280;3137;51.550;7.060;2023-02-03T09:20:09;102017.06;;;8.74;80.27
6208;BME280;3137;51.550;7.060;2023-02-03T09:22:38;102008.06;;;8.77;79.90
6208;BME280;3137;51.550;7.060;2023-02-03T09:25:05;102025.81;;;8.78;80.34
6208;BME280;3137;51.550;7.060;2023-02-03T09:27:32;102017.97;;;8.73;80.57
6208;BME280;3137;51.550;7.060;2023-02-03T09:29:58;102017.66;;;8.81;80.63
6208;BME280;3137;51.550;7.060;2023-02-03T09:32:25;102022.19;;;8.79;80.59
6208;BME280;3137;51.550;7.060;2023-02-03T09:34:51;102021.22;;;8.81;80.21
6208;BME280;3137;51.550;7.060;2023-02-03T09:37:17;102016.78;;;8.80;80.23
6208;BME280;3137;51.550;7.060;2023-02-03T09:39:44;102013.09;;;8.83;80.20
6208;BME280;3137;51.550;7.060;2023-02-03T09:42:21;102036.16;;;8.85;80.20
6208;BME280;3137;51.550;7.060;2023-02-03T09:45:01;102019.19;;;8.86;80.43
6208;BME280;3137;51.550;7.060;2023-02-03T09:47:33;102028.22;;;8.84;80.74
6208;BME280;3137;51.550;7.060;2023-02-03T09:50:05;102033.47;;;8.85;80.13
6208;BME280;3137;51.550;7.060;2023-02-03T09:52:37;102019.31;;;8.83;80.51
6208;BME280;3137;51.550;7.060;2023-02-03T09:55:37;102013.84;;;8.86;80.56
6208;BME280;3137;51.550;7.060;2023-02-03T09:58:11;102017.41;;;8.87;80.84
6208;BME280;3137;51.550;7.060;2023-02-03T10:00:49;102006.66;;;8.88;80.76
6208;BME280;3137;51.550;7.060;2023-02-03T10:03:50;102003.69;;;8.94;80.50
6208;BME280;3137;51.550;7.060;2023-02-03T10:06:32;102026.81;;;8.96;80.21
6208;BME280;3137;51.550;7.060;2023-02-03T10:12:18;102029.50;;;8.96;80.44
6208;BME280;3137;51.550;7.060;2023-02-03T10:15:06;102016.13;;;8.96;80.67
6208;BME280;3137;51.550;7.060;2023-02-03T10:17:57;102033.13;;;8.93;80.71
6208;BME280;3137;51.550;7.060;2023-02-03T10:23:16;102041.25;;;8.91;81.18
6208;BME280;3137;51.550;7.060;2023-02-03T10:25:48;102037.63;;;8.92;80.75
6208;BME280;3137;51.550;7.060;2023-02-03T10:28:26;102037.63;;;8.92;80.73
6208;BME280;3137;51.550;7.060;2023-02-03T10:31:03;102049.16;;;8.93;80.72
6208;BME280;3137;51.550;7.060;2023-02-03T10:33:33;102048.84;;;9.01;80.49
6208;BME280;3137;51.550;7.060;2023-02-03T10:36:06;102054.41;;;8.96;80.93
6208;BME280;3137;51.550;7.060;2023-02-03T10:38:56;102048.03;;;8.99;80.99
6208;BME280;3137;51.550;7.060;2023-02-03T10:41:26;102051.44;;;9.02;80.84
6208;BME280;3137;51.550;7.060;2023-02-03T10:43:53;102040.03;;;8.99;81.10
6208;BME280;3137;51.550;7.060;2023-02-03T10:46:32;102044.44;;;9.00;81.46
6208;BME280;3137;51.550;7.060;2023-02-03T10:48:59;102039.16;;;8.98;81.14
6208;BME280;3137;51.550;7.060;2023-02-03T10:51:36;102043.44;;;9.02;81.20
6208;BME280;3137;51.550;7.060;2023-02-03T10:54:02;102045.22;;;9.02;81.44
6208;BME280;3137;51.550;7.060;2023-02-03T10:56:34;102045.38;;;8.99;81.57
6208;BME280;3137;51.550;7.060;2023-02-03T10:59:02;102046.09;;;9.02;81.44
6208;BME280;3137;51.550;7.060;2023-02-03T11:01:45;102041.66;;;9.03;80.97
6208;BME280;3137;51.550;7.060;2023-02-03T11:04:32;102038.06;;;9.02;81.67
6208;BME280;3137;51.550;7.060;2023-02-03T11:07:01;102034.59;;;9.00;81.70
6208;BME280;3137;51.550;7.060;2023-02-03T11:09:32;102037.06;;;9.05;81.24
6208;BME280;3137;51.550;7.060;2023-02-03T11:12:07;102044.31;;;9.03;81.70
6208;BME280;3137;51.550;7.060;2023-02-03T11:14:39;102038.81;;;9.06;81.61
6208;BME280;3137;51.550;7.060;2023-02-03T11:17:26;102049.22;;;9.12;81.42
6208;BME280;3137;51.550;7.060;2023-02-03T11:20:14;102045.69;;;9.11;81.49
6208;BME280;3137;51.550;7.060;2023-02-03T11:22:43;102053.66;;;9.13;81.66
6208;BME280;3137;51.550;7.060;2023-02-03T11:25:27;102065.22;;;9.13;81.94
6208;BME280;3137;51.550;7.060;2023-02-03T11:28:03;102057.13;;;9.15;81.45
6208;BME280;3137;51.550;7.060;2023-02-03T11:30:31;102064.16;;;9.18;81.05
6208;BME280;3137;51.550;7.060;2023-02-03T11:33:01;102062.34;;;9.18;81.12
6208;BME280;3137;51.550;7.060;2023-02-03T11:35:29;102063.13;;;9.20;81.36
6208;BME280;3137;51.550;7.060;2023-02-03T11:37:59;102067.53;;;9.21;81.00
6208;BME280;3137;51.550;7.060;2023-02-03T11:40:28;102064.00;;;9.21;81.35
6208;BME280;3137;51.550;7.060;2023-02-03T11:53:13;102068.06;;;9.29;80.90
6208;BME280;3137;51.550;7.060;2023-02-03T12:01:08;102056.94;;;9.20;81.87
6208;BME280;3137;51.550;7.060;2023-02-03T12:06:44;102059.47;;;9.23;81.30
6208;BME280;3137;51.550;7.060;2023-02-03T12:12:00;102064.81;;;9.23;81.83
6208;BME280;3137;51.550;7.060;2023-02-03T12:17:22;102069.94;;;9.27;81.37
6208;BME280;3137;51.550;7.060;2023-02-03T12:20:05;102078.03;;;9.26;81.46
6208;BME280;3137;51.550;7.060;2023-02-03T12:22:48;102078.97;;;9.25;81.60
6208;BME280;3137;51.550;7.060;2023-02-03T12:30:43;102078.09;;;9.24;81.73
6208;BME280;3137;51.550;7.060;2023-02-03T12:33:22;102079.03;;;9.23;81.70
6208;BME280;3137;51.550;7.060;2023-02-03T12:35:58;102064.84;;;9.21;82.38
6208;BME280;3137;51.550;7.060;2023-02-03T12:38:44;102080.50;;;9.30;81.77
6208;BME280;3137;51.550;7.060;2023-02-03T12:41:38;102066.88;;;9.36;81.72
6208;BME280;3137;51.550;7.060;2023-02-03T12:44:34;102077.34;;;9.41;81.60
6208;BME280;3137;51.550;7.060;2023-02-03T12:47:36;102070.09;;;9.43;81.55
6208;BME280;3137;51.550;7.060;2023-02-03T12:50:21;102073.47;;;9.48;80.93
6208;BME280;3137;51.550;7.060;2023-02-03T12:52:56;102064.44;;;9.51;80.70
6208;BME280;3137;51.550;7.060;2023-02-03T12:58:26;102063.41;;;9.53;80.46
6208;BME280;3137;51.550;7.060;2023-02-03T13:01:00;102071.34;;;9.55;80.14
6208;BME280;3137;51.550;7.060;2023-02-03T13:03:40;102065.94;;;9.56;80.31
6208;BME280;3137;51.550;7.060;2023-02-03T13:06:16;102062.31;;;9.57;79.79
6208;BME280;3137;51.550;7.060;2023-02-03T13:08:56;102070.34;;;9.57;80.26
6208;BME280;3137;51.550;7.060;2023-02-03T13:11:32;102059.78;;;9.54;79.91
6208;BME280;3137;51.550;7.060;2023-02-03T13:14:27;102056.09;;;9.57;79.50
6208;BME280;3137;51.550;7.060;2023-02-03T13:17:01;102065.88;;;9.58;79.84
6208;BME280;3137;51.550;7.060;2023-02-03T13:19:47;102065.09;;;9.56;80.12
6208;BME280;3137;51.550;7.060;2023-02-03T13:22:15;102059.78;;;9.54;79.93
6208;BME280;3137;51.550;7.060;2023-02-03T13:25:06;102057.97;;;9.55;79.96
6208;BME280;3137;51.550;7.060;2023-02-03T13:27:45;102059.78;;;9.54;79.89
6208;BME280;3137;51.550;7.060;2023-02-03T13:33:14;102060.16;;;9.47;80.33
6208;BME280;3137;51.550;7.060;2023-02-03T13:36:13;102053.94;;;9.46;80.33
6208;BME280;3137;51.550;7.060;2023-02-03T13:44:00;102062.97;;;9.44;80.63
6208;BME280;3137;51.550;7.060;2023-02-03T13:46:32;102078.94;;;9.45;80.81
6208;BME280;3137;51.550;7.060;2023-02-03T13:49:02;102090.78;;;9.40;81.81
6208;BME280;3137;51.550;7.060;2023-02-03T13:51:32;102092.00;;;9.12;82.11
6208;BME280;3137;51.550;7.060;2023-02-03T13:54:04;102106.00;;;8.76;81.93
6208;BME280;3137;51.550;7.060;2023-02-03T13:56:32;102122.91;;;8.55;83.43
6208;BME280;3137;51.550;7.060;2023-02-03T14:01:35;102121.47;;;8.24;84.74
6208;BME280;3137;51.550;7.060;2023-02-03T14:04:07;102128.13;;;8.12;85.50
6208;BME280;3137;51.550;7.060;2023-02-03T14:09:16;102113.00;;;7.89;86.52
6208;BME280;3137;51.550;7.060;2023-02-03T14:11:45;102120.19;;;7.87;86.97
6208;BME280;3137;51.550;7.060;2023-02-03T14:14:58;102109.81;;;7.79;86.67
6208;BME280;3137;51.550;7.060;2023-02-03T14:16:58;102112.66;;;7.75;86.31
6208;BME280;3137;51.550;7.060;2023-02-03T14:22:05;102128.53;;;7.78;86.45
6208;BME280;3137;51.550;7.060;2023-02-03T14:24:36;102145.31;;;7.81;85.63
6208;BME280;3137;51.550;7.060;2023-02-03T14:27:14;102148.09;;;7.78;85.99
6208;BME280;3137;51.550;7.060;2023-02-03T14:29:41;102154.13;;;7.83;85.55
6208;BME280;3137;51.550;7.060;2023-02-03T14:32:09;102161.06;;;7.87;85.50
6208;BME280;3137;51.550;7.060;2023-02-03T14:34:39;102178.75;;;7.90;86.25
6208;BME280;3137;51.550;7.060;2023-02-03T14:37:15;102164.56;;;7.89;86.07
6208;BME280;3137;51.550;7.060;2023-02-03T14:39:56;102166.31;;;7.91;85.99
6208;BME280;3137;51.550;7.060;2023-02-03T14:45:26;102171.53;;;7.94;86.33
6208;BME280;3137;51.550;7.060;2023-02-03T14:48:06;102178.50;;;7.98;86.34
6208;BME280;3137;51.550;7.060;2023-02-03T14:50:58;102187.41;;;7.97;86.35
6208;BME280;3137;51.550;7.060;2023-02-03T14:53:34;102192.66;;;8.00;85.95
6208;BME280;3137;51.550;7.060;2023-02-03T14:59:23;102194.38;;;8.01;85.93
6208;BME280;3137;51.550;7.060;2023-02-03T15:06:46;102193.34;;;8.05;85.49
6208;BME280;3137;51.550;7.060;2023-02-03T15:09:37;102188.81;;;8.07;84.63